BER236S LIML-EDDS
Flight info
| Callsign | BER236S |
|---|---|
| Flight time | 0h 37m |
| Altitude | 18000 |
| Route | PEPAG N851 ABESI/N0409F240 N851 UTAVO DCT SOPER N851 ROMIR/N0397F220 T125 REUTL REUTL5A |
| Aircraft | A320/M-SDE3FGHIRWY/LB1 |
Departure
| Time | 2026-04-30 21:15 |
|---|---|
| Airport | Milano Linate Airport (LIML) |
Arrival
| Time | 2026-04-30 21:53 |
|---|---|
| Airport | Stuttgart Airport (EDDS) |
| Time | Latitude | Longitude | Altitude | Speed | Heading |
|---|---|---|---|---|---|
| 2026-04-30 20:49 | 45.45973 | 9.27967 | 360 ft | 0 kts | 0° |
| 2026-04-30 21:05 | 45.45972 | 9.27967 | 360 ft | 2 kts | 0° |
| 2026-04-30 21:05 | 45.45947 | 9.27967 | 346 ft | 4 kts | 0° |
| 2026-04-30 21:06 | 45.45925 | 9.27967 | 365 ft | 4 kts | 19° |
| 2026-04-30 21:06 | 45.45909 | 9.27945 | 360 ft | 4 kts | 78° |
| 2026-04-30 21:06 | 45.45907 | 9.27910 | 360 ft | 3 kts | 90° |
| 2026-04-30 21:06 | 45.45907 | 9.27905 | 360 ft | 0 kts | 90° |
| 2026-04-30 21:08 | 45.45907 | 9.27913 | 360 ft | 5 kts | 90° |
| 2026-04-30 21:08 | 45.45894 | 9.27979 | 366 ft | 8 kts | 143° |
| 2026-04-30 21:09 | 45.45831 | 9.27984 | 360 ft | 12 kts | 181° |
| 2026-04-30 21:09 | 45.45732 | 9.27982 | 360 ft | 16 kts | 181° |
| 2026-04-30 21:09 | 45.45610 | 9.27980 | 362 ft | 19 kts | 180° |
| 2026-04-30 21:09 | 45.45474 | 9.27977 | 360 ft | 20 kts | 180° |
| 2026-04-30 21:10 | 45.45349 | 9.27951 | 366 ft | 17 kts | 207° |
| 2026-04-30 21:10 | 45.45235 | 9.27878 | 360 ft | 19 kts | 195° |
| 2026-04-30 21:10 | 45.45101 | 9.27878 | 363 ft | 20 kts | 176° |
| 2026-04-30 21:10 | 45.44966 | 9.27894 | 363 ft | 19 kts | 169° |
| 2026-04-30 21:11 | 45.44835 | 9.27941 | 362 ft | 20 kts | 176° |
| 2026-04-30 21:11 | 45.44693 | 9.27956 | 360 ft | 21 kts | 175° |
| 2026-04-30 21:11 | 45.44544 | 9.27971 | 362 ft | 22 kts | 175° |
| 2026-04-30 21:11 | 45.44388 | 9.27988 | 362 ft | 23 kts | 175° |
| 2026-04-30 21:12 | 45.44226 | 9.28006 | 360 ft | 24 kts | 175° |
| 2026-04-30 21:12 | 45.44058 | 9.28024 | 360 ft | 25 kts | 175° |
| 2026-04-30 21:12 | 45.43885 | 9.28043 | 363 ft | 25 kts | 175° |
| 2026-04-30 21:12 | 45.43708 | 9.28061 | 360 ft | 26 kts | 175° |
| 2026-04-30 21:13 | 45.43554 | 9.28078 | 361 ft | 18 kts | 176° |
| 2026-04-30 21:13 | 45.43450 | 9.28042 | 364 ft | 12 kts | 239° |
| 2026-04-30 21:13 | 45.43441 | 9.27927 | 361 ft | 11 kts | 265° |
| 2026-04-30 21:13 | 45.43439 | 9.27845 | 364 ft | 6 kts | 276° |
| 2026-04-30 21:14 | 45.43480 | 9.27815 | 362 ft | 6 kts | 356° |
| 2026-04-30 21:14 | 45.43484 | 9.27815 | 362 ft | 0 kts | 356° |
| 2026-04-30 21:14 | 45.43791 | 9.27784 | 364 ft | 86 kts | 355° |
| 2026-04-30 21:14 | 45.44630 | 9.27694 | 364 ft | 152 kts | 356° |
| 2026-04-30 21:15 | 45.45765 | 9.27581 | 826 ft | 166 kts | 357° |
| 2026-04-30 21:15 | 45.46898 | 9.27191 | 1585 ft | 170 kts | 343° |
| 2026-04-30 21:15 | 45.48023 | 9.26641 | 2315 ft | 170 kts | 345° |
| 2026-04-30 21:15 | 45.49142 | 9.26108 | 2953 ft | 169 kts | 345° |
| 2026-04-30 21:16 | 45.50249 | 9.25590 | 3573 ft | 166 kts | 345° |
| 2026-04-30 21:16 | 45.51372 | 9.25069 | 4001 ft | 178 kts | 343° |
| 2026-04-30 21:16 | 45.52612 | 9.24450 | 4289 ft | 199 kts | 342° |
| 2026-04-30 21:16 | 45.53988 | 9.23738 | 4535 ft | 224 kts | 341° |
| 2026-04-30 21:17 | 45.55535 | 9.22945 | 4881 ft | 247 kts | 343° |
| 2026-04-30 21:17 | 45.57259 | 9.22295 | 5447 ft | 262 kts | 348° |
| 2026-04-30 21:17 | 45.59054 | 9.21742 | 6295 ft | 266 kts | 349° |
| 2026-04-30 21:17 | 45.60851 | 9.21217 | 7144 ft | 269 kts | 348° |
| 2026-04-30 21:18 | 45.62696 | 9.20667 | 7938 ft | 273 kts | 348° |
| 2026-04-30 21:18 | 45.64567 | 9.20097 | 8764 ft | 276 kts | 348° |
| 2026-04-30 21:18 | 45.66458 | 9.19517 | 9607 ft | 279 kts | 348° |
| 2026-04-30 21:18 | 45.68374 | 9.18928 | 10360 ft | 283 kts | 348° |
| 2026-04-30 21:19 | 45.70357 | 9.18320 | 10754 ft | 302 kts | 348° |
| 2026-04-30 21:19 | 45.72498 | 9.17670 | 10978 ft | 325 kts | 349° |
| 2026-04-30 21:19 | 45.74752 | 9.16986 | 11496 ft | 335 kts | 349° |
| 2026-04-30 21:19 | 45.77039 | 9.16288 | 12198 ft | 339 kts | 349° |
| 2026-04-30 21:20 | 45.79363 | 9.15580 | 12932 ft | 343 kts | 349° |
| 2026-04-30 21:20 | 45.81702 | 9.14865 | 13667 ft | 345 kts | 350° |
| 2026-04-30 21:20 | 45.84066 | 9.14139 | 14352 ft | 349 kts | 350° |
| 2026-04-30 21:20 | 45.86446 | 9.13406 | 15000 ft | 351 kts | 350° |
| 2026-04-30 21:21 | 45.88843 | 9.12666 | 15650 ft | 354 kts | 350° |
| 2026-04-30 21:21 | 45.91260 | 9.11920 | 16317 ft | 356 kts | 351° |
| 2026-04-30 21:21 | 45.96155 | 9.10416 | 17517 ft | 363 kts | 351° |
| 2026-04-30 21:22 | 45.97796 | 9.09911 | 17877 ft | 365 kts | 351° |
| 2026-04-30 21:22 | 46.05350 | 9.07585 | 19518 ft | 374 kts | 351° |
| 2026-04-30 21:23 | 46.07905 | 9.06795 | 20066 ft | 377 kts | 351° |
| 2026-04-30 21:23 | 46.10474 | 9.05999 | 20619 ft | 379 kts | 351° |
| 2026-04-30 21:23 | 46.15670 | 9.04397 | 21746 ft | 383 kts | 353° |
| 2026-04-30 21:24 | 46.18319 | 9.03952 | 22291 ft | 385 kts | 358° |
| 2026-04-30 21:24 | 46.20982 | 9.03970 | 22812 ft | 384 kts | 8° |
| 2026-04-30 21:24 | 46.23647 | 9.04388 | 23315 ft | 386 kts | 8° |
| 2026-04-30 21:24 | 46.26325 | 9.04817 | 23851 ft | 388 kts | 8° |
| 2026-04-30 21:25 | 46.31698 | 9.05686 | 24629 ft | 393 kts | 8° |
| 2026-04-30 21:25 | 46.34425 | 9.06128 | 24998 ft | 394 kts | 8° |
| 2026-04-30 21:25 | 46.37159 | 9.06570 | 25351 ft | 396 kts | 8° |
| 2026-04-30 21:26 | 46.42668 | 9.07453 | 26055 ft | 400 kts | 8° |
| 2026-04-30 21:26 | 46.45441 | 9.07895 | 26376 ft | 402 kts | 8° |
| 2026-04-30 21:27 | 46.51026 | 9.08796 | 27053 ft | 405 kts | 9° |
| 2026-04-30 21:27 | 46.53837 | 9.09247 | 27406 ft | 407 kts | 9° |
| 2026-04-30 21:27 | 46.56656 | 9.09703 | 27776 ft | 409 kts | 9° |
| 2026-04-30 21:28 | 46.62340 | 9.10627 | 28444 ft | 413 kts | 9° |
| 2026-04-30 21:28 | 46.65201 | 9.11091 | 28800 ft | 414 kts | 9° |
| 2026-04-30 21:28 | 46.70948 | 9.12023 | 29419 ft | 417 kts | 9° |
| 2026-04-30 21:29 | 46.73839 | 9.12494 | 29717 ft | 419 kts | 9° |
| 2026-04-30 21:29 | 46.82543 | 9.13923 | 30263 ft | 412 kts | 9° |
| 2026-04-30 21:30 | 46.88204 | 9.14837 | 30257 ft | 407 kts | 9° |
| 2026-04-30 21:31 | 47.02268 | 9.17152 | 30256 ft | 407 kts | 9° |
| 2026-04-30 21:32 | 47.10666 | 9.18533 | 30257 ft | 406 kts | 9° |
| 2026-04-30 21:32 | 47.16278 | 9.19457 | 30254 ft | 406 kts | 10° |
| 2026-04-30 21:33 | 47.24690 | 9.20847 | 30247 ft | 405 kts | 10° |
| 2026-04-30 21:34 | 47.30291 | 9.21778 | 30260 ft | 405 kts | 10° |
| 2026-04-30 21:34 | 47.38692 | 9.23171 | 30270 ft | 405 kts | 10° |
| 2026-04-30 21:35 | 47.44297 | 9.24110 | 30269 ft | 405 kts | 10° |
| 2026-04-30 21:35 | 47.49895 | 9.25056 | 30158 ft | 403 kts | 10° |
| 2026-04-30 21:36 | 47.52677 | 9.25521 | 29454 ft | 401 kts | 10° |
| 2026-04-30 21:36 | 47.55441 | 9.25983 | 28810 ft | 398 kts | 9° |
| 2026-04-30 21:37 | 47.63597 | 9.27311 | 27020 ft | 389 kts | 8° |
| 2026-04-30 21:37 | 47.66253 | 9.27664 | 26450 ft | 386 kts | 8° |
| 2026-04-30 21:37 | 47.68921 | 9.27979 | 25913 ft | 384 kts | 7° |
| 2026-04-30 21:37 | 47.71577 | 9.28275 | 25350 ft | 381 kts | 7° |
| 2026-04-30 21:38 | 47.74214 | 9.28567 | 24785 ft | 380 kts | 7° |
| 2026-04-30 21:38 | 47.76846 | 9.28864 | 24215 ft | 380 kts | 7° |
| 2026-04-30 21:38 | 47.79475 | 9.29168 | 23666 ft | 378 kts | 7° |
| 2026-04-30 21:38 | 47.82091 | 9.29479 | 23101 ft | 376 kts | 7° |
| 2026-04-30 21:39 | 47.84690 | 9.29789 | 22565 ft | 373 kts | 7° |
| 2026-04-30 21:39 | 47.87269 | 9.30097 | 22070 ft | 370 kts | 7° |
| 2026-04-30 21:39 | 47.89829 | 9.30405 | 21584 ft | 368 kts | 7° |
| 2026-04-30 21:39 | 47.92372 | 9.30710 | 21096 ft | 365 kts | 7° |
| 2026-04-30 21:40 | 47.94897 | 9.31014 | 20621 ft | 363 kts | 7° |
| 2026-04-30 21:40 | 47.97409 | 9.31321 | 20141 ft | 361 kts | 7° |
| 2026-04-30 21:40 | 47.99902 | 9.31630 | 19673 ft | 359 kts | 7° |
| 2026-04-30 21:40 | 48.02383 | 9.31933 | 19220 ft | 357 kts | 7° |
| 2026-04-30 21:41 | 48.04848 | 9.32229 | 18765 ft | 355 kts | 7° |
| 2026-04-30 21:41 | 48.07302 | 9.32520 | 18278 ft | 352 kts | 7° |
| 2026-04-30 21:41 | 48.09738 | 9.32809 | 17821 ft | 349 kts | 7° |
| 2026-04-30 21:41 | 48.12151 | 9.33100 | 17340 ft | 347 kts | 7° |
| 2026-04-30 21:42 | 48.14570 | 9.33161 | 16854 ft | 349 kts | 355° |
| 2026-04-30 21:42 | 48.16894 | 9.32124 | 16404 ft | 354 kts | 336° |
| 2026-04-30 21:42 | 48.18997 | 9.30182 | 15940 ft | 355 kts | 330° |
| 2026-04-30 21:42 | 48.21036 | 9.28177 | 15490 ft | 354 kts | 330° |
| 2026-04-30 21:43 | 48.23087 | 9.26141 | 15037 ft | 353 kts | 330° |
| 2026-04-30 21:43 | 48.25129 | 9.24110 | 14594 ft | 352 kts | 330° |
| 2026-04-30 21:43 | 48.27188 | 9.22061 | 14166 ft | 350 kts | 329° |
| 2026-04-30 21:43 | 48.29188 | 9.20072 | 13692 ft | 349 kts | 329° |
| 2026-04-30 21:44 | 48.31207 | 9.18066 | 13202 ft | 347 kts | 329° |
| 2026-04-30 21:44 | 48.33217 | 9.16071 | 12729 ft | 345 kts | 329° |
| 2026-04-30 21:44 | 48.35215 | 9.14089 | 12360 ft | 341 kts | 329° |
| 2026-04-30 21:44 | 48.37160 | 9.12156 | 12229 ft | 329 kts | 329° |
| 2026-04-30 21:45 | 48.39020 | 9.10298 | 12000 ft | 312 kts | 329° |
| 2026-04-30 21:45 | 48.40805 | 9.08492 | 11442 ft | 305 kts | 329° |
| 2026-04-30 21:45 | 48.42552 | 9.06723 | 10878 ft | 301 kts | 328° |
| 2026-04-30 21:45 | 48.44290 | 9.04996 | 10285 ft | 298 kts | 329° |
| 2026-04-30 21:46 | 48.46015 | 9.03295 | 9627 ft | 295 kts | 329° |
| 2026-04-30 21:46 | 48.47724 | 9.01612 | 8964 ft | 293 kts | 329° |
| 2026-04-30 21:46 | 48.49426 | 8.99935 | 8290 ft | 291 kts | 329° |
| 2026-04-30 21:46 | 48.51112 | 8.98269 | 7656 ft | 289 kts | 329° |
| 2026-04-30 21:47 | 48.52781 | 8.96614 | 7011 ft | 287 kts | 329° |
| 2026-04-30 21:47 | 48.54469 | 8.95028 | 6337 ft | 283 kts | 339° |
| 2026-04-30 21:47 | 48.56327 | 8.94214 | 5649 ft | 277 kts | 352° |
| 2026-04-30 21:47 | 48.58219 | 8.93668 | 4960 ft | 276 kts | 354° |
| 2026-04-30 21:48 | 48.60096 | 8.93220 | 4349 ft | 267 kts | 4° |
| 2026-04-30 21:48 | 48.61820 | 8.93694 | 4058 ft | 238 kts | 30° |
| 2026-04-30 21:48 | 48.63129 | 8.94962 | 4014 ft | 220 kts | 50° |
| 2026-04-30 21:48 | 48.64047 | 8.96794 | 4014 ft | 211 kts | 69° |
| 2026-04-30 21:49 | 48.64510 | 8.98773 | 4009 ft | 191 kts | 78° |
| 2026-04-30 21:49 | 48.64863 | 9.00604 | 3923 ft | 178 kts | 78° |
| 2026-04-30 21:49 | 48.65196 | 9.02338 | 3771 ft | 169 kts | 78° |
| 2026-04-30 21:49 | 48.65521 | 9.04033 | 3534 ft | 166 kts | 78° |
| 2026-04-30 21:50 | 48.65836 | 9.05675 | 3308 ft | 158 kts | 78° |
| 2026-04-30 21:50 | 48.66133 | 9.07222 | 3102 ft | 148 kts | 78° |
| 2026-04-30 21:50 | 48.66430 | 9.08786 | 2898 ft | 158 kts | 77° |
| 2026-04-30 21:50 | 48.66732 | 9.10356 | 2652 ft | 155 kts | 76° |
| 2026-04-30 21:51 | 48.67029 | 9.11925 | 2423 ft | 155 kts | 75° |
| 2026-04-30 21:51 | 48.67328 | 9.13489 | 2207 ft | 153 kts | 74° |
| 2026-04-30 21:51 | 48.67628 | 9.15026 | 1984 ft | 152 kts | 74° |
| 2026-04-30 21:51 | 48.67919 | 9.16563 | 1811 ft | 152 kts | 75° |
| 2026-04-30 21:52 | 48.68207 | 9.18075 | 1624 ft | 148 kts | 75° |
| 2026-04-30 21:52 | 48.68489 | 9.19562 | 1441 ft | 147 kts | 75° |
| 2026-04-30 21:52 | 48.68768 | 9.21034 | 1268 ft | 139 kts | 75° |
| 2026-04-30 21:52 | 48.68993 | 9.22221 | 1249 ft | 95 kts | 73° |
| 2026-04-30 21:53 | 48.69141 | 9.22899 | 1225 ft | 46 kts | 56° |
| 2026-04-30 21:53 | 48.69276 | 9.23114 | 1221 ft | 18 kts | 44° |
| 2026-04-30 21:53 | 48.69389 | 9.23124 | 1217 ft | 19 kts | 317° |
| 2026-04-30 21:53 | 48.69392 | 9.22949 | 1220 ft | 17 kts | 254° |
| 2026-04-30 21:54 | 48.69364 | 9.22800 | 1223 ft | 13 kts | 254° |
| 2026-04-30 21:54 | 48.69342 | 9.22690 | 1225 ft | 9 kts | 253° |
| 2026-04-30 21:54 | 48.69327 | 9.22605 | 1227 ft | 11 kts | 254° |
| 2026-04-30 21:54 | 48.69302 | 9.22475 | 1230 ft | 12 kts | 254° |
| 2026-04-30 21:55 | 48.69284 | 9.22376 | 1232 ft | 8 kts | 254° |
| 2026-04-30 21:55 | 48.69273 | 9.22322 | 1245 ft | 4 kts | 254° |
| 2026-04-30 21:55 | 48.69255 | 9.22228 | 1242 ft | 14 kts | 253° |
| 2026-04-30 21:55 | 48.69231 | 9.22102 | 1246 ft | 9 kts | 255° |
| 2026-04-30 21:56 | 48.69219 | 9.22039 | 1253 ft | 6 kts | 255° |
| 2026-04-30 21:56 | 48.69206 | 9.21967 | 1260 ft | 9 kts | 254° |
| 2026-04-30 21:56 | 48.69186 | 9.21860 | 1257 ft | 13 kts | 254° |
| 2026-04-30 21:56 | 48.69156 | 9.21705 | 1260 ft | 18 kts | 254° |
| 2026-04-30 21:57 | 48.69116 | 9.21486 | 1260 ft | 24 kts | 253° |
| 2026-04-30 21:57 | 48.69067 | 9.21238 | 1260 ft | 25 kts | 253° |
| 2026-04-30 21:57 | 48.69030 | 9.21042 | 1270 ft | 14 kts | 254° |
| 2026-04-30 21:57 | 48.69007 | 9.20922 | 1265 ft | 10 kts | 253° |
| 2026-04-30 21:58 | 48.68989 | 9.20829 | 1274 ft | 12 kts | 254° |
| 2026-04-30 21:58 | 48.68964 | 9.20682 | 1271 ft | 15 kts | 261° |
| 2026-04-30 21:58 | 48.69002 | 9.20563 | 1273 ft | 11 kts | 312° |
| 2026-04-30 21:58 | 48.69050 | 9.20489 | 1274 ft | 8 kts | 312° |
| 2026-04-30 21:59 | 48.69059 | 9.20420 | 1275 ft | 7 kts | 258° |
| 2026-04-30 21:59 | 48.69049 | 9.20363 | 1277 ft | 4 kts | 254° |
| 2026-04-30 21:59 | 48.69037 | 9.20300 | 1278 ft | 10 kts | 254° |
| 2026-04-30 22:00 | 48.68995 | 9.20199 | 1281 ft | 4 kts | 163° |
| 2026-04-30 22:00 | 48.68949 | 9.20219 | 1282 ft | 2 kts | 163° |
| 2026-04-30 22:00 | 48.68947 | 9.20220 | 1282 ft | 0 kts | 163° |